createdAt,value
2023-01-18T00:00:40.396Z,7.50
2023-01-18T00:03:13.216Z,7.50
2023-01-18T00:05:43.831Z,7.50
2023-01-18T00:08:12.645Z,7.50
2023-01-18T00:10:40.177Z,7.50
2023-01-18T00:13:07.500Z,7.50
2023-01-18T00:15:35.752Z,7.40
2023-01-18T00:18:03.268Z,7.50
2023-01-18T00:20:31.465Z,7.50
2023-01-18T00:23:01.788Z,7.40
2023-01-18T00:25:30.353Z,7.40
2023-01-18T00:27:57.798Z,7.40
2023-01-18T00:30:27.477Z,7.40
2023-01-18T00:32:57.298Z,7.40
2023-01-18T00:35:26.082Z,7.40
2023-01-18T00:37:54.112Z,7.40
2023-01-18T00:40:22.871Z,7.40
2023-01-18T00:43:08.560Z,7.40
2023-01-18T00:45:35.675Z,7.40
2023-01-18T00:48:02.852Z,7.40
2023-01-18T00:50:30.346Z,7.40
2023-01-18T00:52:59.060Z,7.40
2023-01-18T00:55:26.830Z,7.40
2023-01-18T00:57:54.044Z,7.40
2023-01-18T01:00:26.836Z,7.40
2023-01-18T01:02:54.738Z,7.40
2023-01-18T01:05:43.822Z,7.40
2023-01-18T01:08:17.523Z,7.40
2023-01-18T01:10:49.523Z,7.30
2023-01-18T01:13:37.450Z,7.30
2023-01-18T01:16:28.200Z,7.30
2023-01-18T01:19:14.392Z,7.20
2023-01-18T01:22:00.707Z,7.20
2023-01-18T01:24:46.612Z,7.20
2023-01-18T01:27:14.136Z,7.10
2023-01-18T01:29:41.364Z,7.10
2023-01-18T01:32:08.677Z,7.10
2023-01-18T01:34:36.152Z,7.10
2023-01-18T01:37:03.738Z,7.10
2023-01-18T01:39:31.029Z,7.10
2023-01-18T01:41:58.159Z,7.10
2023-01-18T01:44:25.119Z,7.10
2023-01-18T01:46:57.364Z,7.20
2023-01-18T01:49:26.811Z,7.20
2023-01-18T01:52:05.837Z,7.20
2023-01-18T01:54:38.963Z,7.10
2023-01-18T01:57:29.706Z,7.10
2023-01-18T02:00:09.464Z,7.10
2023-01-18T02:02:37.877Z,7.10
2023-01-18T02:05:07.222Z,7.00
2023-01-18T02:07:34.497Z,7.00
2023-01-18T02:10:03.168Z,7.00
2023-01-18T02:12:30.988Z,7.10
2023-01-18T02:15:00.181Z,7.10
2023-01-18T02:18:01.008Z,7.10
2023-01-18T02:21:09.391Z,7.10
2023-01-18T02:23:45.367Z,7.00
2023-01-18T02:26:30.340Z,7.00
2023-01-18T02:29:12.661Z,7.00
2023-01-18T02:31:55.052Z,7.00
2023-01-18T02:34:36.305Z,6.90
2023-01-18T02:37:23.850Z,6.90
2023-01-18T02:40:22.648Z,6.90
2023-01-18T02:43:08.351Z,6.80
2023-01-18T02:46:07.241Z,6.80
2023-01-18T02:48:41.214Z,6.90
2023-01-18T02:51:09.130Z,6.90
2023-01-18T02:53:43.162Z,7.00
2023-01-18T02:56:13.299Z,7.00
2023-01-18T02:58:57.186Z,7.10
2023-01-18T03:01:30.015Z,7.10
2023-01-18T03:04:06.409Z,7.10
2023-01-18T03:06:33.976Z,7.10
2023-01-18T03:09:01.749Z,7.00
2023-01-18T03:11:59.947Z,7.00
2023-01-18T03:14:43.080Z,7.00
2023-01-18T03:17:25.412Z,6.90
2023-01-18T03:20:05.925Z,6.90
2023-01-18T03:23:06.061Z,6.90
2023-01-18T03:25:39.838Z,6.80
2023-01-18T03:28:29.707Z,6.80
2023-01-18T03:31:19.811Z,6.80
2023-01-18T03:33:53.639Z,6.80
2023-01-18T03:36:31.460Z,6.70
2023-01-18T03:39:10.307Z,6.80
2023-01-18T03:41:43.565Z,6.80
2023-01-18T03:44:26.738Z,6.80
2023-01-18T03:46:53.749Z,6.80
2023-01-18T03:49:20.805Z,6.80
2023-01-18T03:52:12.963Z,6.80
2023-01-18T03:54:42.914Z,6.80
2023-01-18T03:57:18.710Z,6.80
2023-01-18T03:59:46.781Z,6.80
2023-01-18T04:02:17.209Z,6.80
2023-01-18T04:04:44.325Z,6.90
2023-01-18T04:07:11.244Z,6.90
2023-01-18T04:09:38.133Z,6.90
2023-01-18T04:12:05.247Z,6.90
2023-01-18T04:14:32.496Z,6.90
2023-01-18T04:16:59.937Z,7.00
2023-01-18T04:19:28.409Z,7.00
2023-01-18T04:21:55.856Z,7.10
2023-01-18T04:24:22.917Z,7.10
2023-01-18T04:26:50.057Z,7.10
2023-01-18T04:29:17.420Z,7.10
2023-01-18T04:31:44.369Z,7.10
2023-01-18T04:34:11.340Z,7.10
2023-01-18T04:36:38.408Z,7.10
2023-01-18T04:39:05.669Z,7.10
2023-01-18T04:41:33.153Z,7.10
2023-01-18T04:44:00.344Z,7.10
2023-01-18T04:46:27.290Z,7.20
2023-01-18T04:48:54.463Z,7.10
2023-01-18T04:51:24.028Z,7.20
2023-01-18T04:53:51.943Z,7.20
2023-01-18T04:56:19.480Z,7.10
2023-01-18T04:58:46.622Z,7.10
2023-01-18T05:01:14.612Z,7.10
2023-01-18T05:03:41.759Z,7.10
2023-01-18T05:06:13.736Z,7.10
2023-01-18T05:08:41.312Z,7.10
2023-01-18T05:11:10.798Z,7.10
2023-01-18T05:13:38.781Z,7.10
2023-01-18T05:16:08.138Z,7.10
2023-01-18T05:18:35.077Z,7.10
2023-01-18T05:21:02.056Z,7.10
2023-01-18T05:23:29.127Z,7.00
2023-01-18T05:25:58.260Z,7.00
2023-01-18T05:28:27.692Z,7.10
2023-01-18T05:30:55.521Z,7.00
2023-01-18T05:33:23.240Z,7.10
2023-01-18T05:35:55.920Z,7.10
2023-01-18T05:38:23.917Z,7.10
2023-01-18T05:40:53.964Z,7.10
2023-01-18T05:43:22.929Z,7.20
2023-01-18T05:45:50.092Z,7.20
2023-01-18T05:48:17.164Z,7.20
2023-01-18T05:50:46.147Z,7.20
2023-01-18T05:53:15.121Z,7.30
2023-01-18T05:55:42.181Z,7.30
2023-01-18T05:58:09.807Z,7.30
2023-01-18T06:00:36.945Z,7.30
2023-01-18T06:03:04.328Z,7.40
2023-01-18T06:05:31.423Z,7.30
2023-01-18T06:07:58.366Z,7.40
2023-01-18T06:10:25.397Z,7.40
2023-01-18T06:12:52.380Z,7.40
2023-01-18T06:15:20.393Z,7.40
2023-01-18T06:17:47.667Z,7.50
2023-01-18T06:20:15.331Z,7.50
2023-01-18T06:22:42.439Z,7.50
2023-01-18T06:25:10.286Z,7.50
2023-01-18T06:27:40.381Z,7.60
2023-01-18T06:30:08.321Z,7.50
2023-01-18T06:32:35.617Z,7.60
2023-01-18T06:35:02.750Z,7.60
2023-01-18T06:37:29.731Z,7.60
2023-01-18T06:39:57.046Z,7.50
2023-01-18T06:42:24.119Z,7.50
2023-01-18T06:44:51.102Z,7.50
2023-01-18T06:47:19.987Z,7.50
2023-01-18T06:49:50.387Z,7.50
2023-01-18T06:52:18.056Z,7.50
2023-01-18T06:54:45.035Z,7.50
2023-01-18T06:57:12.465Z,7.50
2023-01-18T06:59:40.435Z,7.50
2023-01-18T07:02:11.824Z,7.50
2023-01-18T07:04:44.084Z,7.60
2023-01-18T07:07:11.660Z,7.50
2023-01-18T07:09:38.830Z,7.50
2023-01-18T07:12:06.003Z,7.50
2023-01-18T07:14:33.228Z,7.50
2023-01-18T07:17:00.481Z,7.50
2023-01-18T07:19:27.604Z,7.40
2023-01-18T07:21:54.618Z,7.40
2023-01-18T07:24:22.451Z,7.40
2023-01-18T07:26:49.440Z,7.40
2023-01-18T07:29:16.470Z,7.50
2023-01-18T07:31:43.508Z,7.50
2023-01-18T07:34:11.190Z,7.50
2023-01-18T07:36:39.365Z,7.50
2023-01-18T07:39:06.644Z,7.50
2023-01-18T07:41:34.103Z,7.40
2023-01-18T07:44:03.911Z,7.40
2023-01-18T07:46:31.484Z,7.40
2023-01-18T07:48:58.557Z,7.30
2023-01-18T07:51:25.514Z,7.30
2023-01-18T07:53:55.743Z,7.30
2023-01-18T07:56:23.769Z,7.40
2023-01-18T07:58:51.145Z,7.40
2023-01-18T08:01:22.676Z,7.40
2023-01-18T08:03:50.314Z,7.40
2023-01-18T08:06:25.085Z,7.40
2023-01-18T08:08:54.673Z,7.50
2023-01-18T08:11:21.911Z,7.50
2023-01-18T08:13:49.487Z,7.50
2023-01-18T08:16:17.793Z,7.60
2023-01-18T08:18:46.024Z,7.60
2023-01-18T08:21:14.045Z,7.60
2023-01-18T08:23:41.758Z,7.70
2023-01-18T08:26:10.245Z,7.70
2023-01-18T08:28:37.656Z,7.70
2023-01-18T08:31:16.874Z,7.60
2023-01-18T08:33:46.082Z,7.60
2023-01-18T08:36:15.754Z,7.70
2023-01-18T08:38:42.931Z,7.70
2023-01-18T08:41:10.115Z,7.70
2023-01-18T08:43:37.400Z,7.70
2023-01-18T08:46:04.512Z,7.70
2023-01-18T08:48:31.694Z,7.70
2023-01-18T08:51:03.421Z,7.70
2023-01-18T08:53:31.576Z,7.70
2023-01-18T08:55:58.685Z,7.70
2023-01-18T08:58:25.910Z,7.70
2023-01-18T09:00:54.002Z,7.70
2023-01-18T09:03:22.201Z,7.70
2023-01-18T09:05:49.555Z,7.70
2023-01-18T09:08:17.609Z,7.60
2023-01-18T09:10:45.085Z,7.60
2023-01-18T09:13:12.268Z,7.60
2023-01-18T09:15:39.487Z,7.70
2023-01-18T09:18:08.152Z,7.70
2023-01-18T09:20:36.341Z,7.70
2023-01-18T09:23:08.311Z,7.70
2023-01-18T09:25:36.803Z,7.60
2023-01-18T09:28:04.871Z,7.70
2023-01-18T09:30:32.332Z,7.70
2023-01-18T09:32:59.837Z,7.70
2023-01-18T09:35:27.051Z,7.80
2023-01-18T09:37:55.294Z,7.80
2023-01-18T09:40:25.074Z,7.90
2023-01-18T09:42:53.390Z,7.80
2023-01-18T09:45:34.365Z,7.90
2023-01-18T09:48:16.659Z,7.90
2023-01-18T09:50:44.264Z,8.00
2023-01-18T09:53:29.508Z,7.90
2023-01-18T09:56:21.163Z,7.90
2023-01-18T09:58:54.821Z,7.80
2023-01-18T10:01:26.941Z,7.80
2023-01-18T10:03:59.537Z,7.80
2023-01-18T10:06:57.782Z,7.80
2023-01-18T10:09:31.249Z,7.90
2023-01-18T10:12:03.430Z,7.90
2023-01-18T10:14:57.366Z,8.00
2023-01-18T10:17:35.627Z,8.00
2023-01-18T10:20:24.112Z,8.00
2023-01-18T10:23:01.848Z,8.00
2023-01-18T10:26:01.349Z,8.10
2023-01-18T10:28:55.330Z,8.10
2023-01-18T10:31:52.869Z,8.10
2023-01-18T10:34:22.940Z,8.20
2023-01-18T10:36:55.519Z,8.20
2023-01-18T10:39:38.136Z,8.20
2023-01-18T10:42:17.705Z,8.20
2023-01-18T10:44:45.302Z,8.20
2023-01-18T10:47:17.760Z,8.20
2023-01-18T10:49:46.894Z,8.20
2023-01-18T10:52:18.164Z,8.10
2023-01-18T10:54:56.792Z,8.10
2023-01-18T10:57:28.333Z,8.20
2023-01-18T10:59:56.688Z,8.20
2023-01-18T11:02:45.079Z,8.30
2023-01-18T11:05:30.257Z,8.30
2023-01-18T11:08:27.339Z,8.30
2023-01-18T11:11:16.114Z,8.40
2023-01-18T11:13:49.013Z,8.40
2023-01-18T11:16:19.288Z,8.40
2023-01-18T11:19:05.421Z,8.40
2023-01-18T11:21:41.167Z,8.50
2023-01-18T11:24:13.021Z,8.50
2023-01-18T11:27:21.492Z,8.50
2023-01-18T11:29:48.575Z,8.60
2023-01-18T11:32:35.887Z,8.50
2023-01-18T11:35:09.458Z,8.60
2023-01-18T11:37:38.516Z,8.60
2023-01-18T11:40:21.407Z,8.60
2023-01-18T11:42:53.465Z,8.70
2023-01-18T11:45:35.939Z,8.70
2023-01-18T11:48:13.043Z,8.80
2023-01-18T11:50:57.288Z,8.80
2023-01-18T11:53:41.610Z,8.80
2023-01-18T11:56:33.704Z,8.90
2023-01-18T11:59:03.318Z,8.90
2023-01-18T12:01:43.505Z,9.00
2023-01-18T12:05:01.612Z,9.00
2023-01-18T12:07:34.730Z,9.00
2023-01-18T12:10:02.354Z,9.00
2023-01-18T12:12:56.771Z,8.90
2023-01-18T12:16:13.160Z,8.90
2023-01-18T12:18:59.166Z,8.90
2023-01-18T12:22:03.695Z,9.10
2023-01-18T12:25:08.345Z,9.10
2023-01-18T12:27:49.164Z,9.10
2023-01-18T12:30:23.438Z,9.20
2023-01-18T12:32:55.232Z,9.10
2023-01-18T12:35:47.451Z,9.20
2023-01-18T12:38:28.602Z,9.30
2023-01-18T12:40:58.437Z,9.30
2023-01-18T12:43:34.368Z,9.30
2023-01-18T12:46:07.376Z,9.30
2023-01-18T12:48:56.521Z,9.50
2023-01-18T12:51:27.967Z,9.40
2023-01-18T12:54:17.436Z,9.40
2023-01-18T12:56:49.104Z,9.40
2023-01-18T12:59:22.358Z,9.50
2023-01-18T13:01:57.530Z,9.50
2023-01-18T13:04:29.863Z,9.60
2023-01-18T13:07:00.978Z,9.70
2023-01-18T13:09:35.156Z,9.50
2023-01-18T13:12:05.116Z,9.50
2023-01-18T13:14:43.709Z,9.50
2023-01-18T13:17:22.234Z,9.50
2023-01-18T13:19:58.659Z,9.50
2023-01-18T13:22:40.696Z,9.50
2023-01-18T13:25:30.730Z,9.60
2023-01-18T13:28:23.979Z,9.60
2023-01-18T13:31:00.709Z,9.70
2023-01-18T13:33:31.251Z,9.60
2023-01-18T13:36:04.648Z,9.60
2023-01-18T13:38:41.738Z,9.70
2023-01-18T13:41:13.531Z,9.70
2023-01-18T13:43:41.487Z,9.80
2023-01-18T13:46:08.619Z,9.70
2023-01-18T13:48:51.119Z,9.80
2023-01-18T13:51:41.027Z,9.80
2023-01-18T13:54:16.294Z,9.90
2023-01-18T13:57:06.037Z,9.90
2023-01-18T13:59:44.561Z,9.90
2023-01-18T14:02:34.129Z,9.80
2023-01-18T14:05:19.943Z,9.90
2023-01-18T14:07:51.911Z,9.90
2023-01-18T14:10:33.273Z,9.90
2023-01-18T14:13:03.843Z,10.00
2023-01-18T14:15:40.520Z,9.90
2023-01-18T14:18:25.947Z,9.90
2023-01-18T14:21:04.758Z,9.90
2023-01-18T14:24:06.479Z,10.00
2023-01-18T14:26:36.124Z,10.00
2023-01-18T14:29:07.676Z,10.00
2023-01-18T14:31:40.133Z,10.00
2023-01-18T14:34:41.181Z,10.00
2023-01-18T14:37:43.901Z,10.10
2023-01-18T14:40:16.772Z,10.10
2023-01-18T14:42:57.149Z,10.10
2023-01-18T14:45:37.355Z,10.20
2023-01-18T14:48:19.418Z,10.10
2023-01-18T14:50:48.773Z,10.20
2023-01-18T14:53:22.150Z,10.10
2023-01-18T14:56:28.609Z,10.10
2023-01-18T14:59:19.255Z,10.20
2023-01-18T15:01:59.620Z,10.10
2023-01-18T15:04:28.886Z,10.10
2023-01-18T15:06:58.296Z,10.10
2023-01-18T15:09:28.240Z,10.20
2023-01-18T15:12:02.609Z,10.20
2023-01-18T15:14:36.692Z,10.20
2023-01-18T15:17:10.587Z,10.20
2023-01-18T15:19:44.168Z,10.20
2023-01-18T15:22:17.014Z,10.20
2023-01-18T15:24:45.716Z,10.20
2023-01-18T15:27:18.335Z,10.20
2023-01-18T15:29:53.905Z,10.20
2023-01-18T15:32:27.336Z,10.20
2023-01-18T15:34:56.389Z,10.20
2023-01-18T15:37:33.233Z,10.20
2023-01-18T15:40:02.502Z,10.20
2023-01-18T15:42:44.581Z,10.20
2023-01-18T15:45:22.045Z,10.20
2023-01-18T15:47:52.154Z,10.20
2023-01-18T15:50:20.761Z,10.20
2023-01-18T15:53:02.211Z,10.20
2023-01-18T15:55:51.505Z,10.10
2023-01-18T15:58:30.860Z,10.10
2023-01-18T16:01:01.053Z,10.10
2023-01-18T16:03:40.931Z,10.00
2023-01-18T16:06:16.953Z,10.10
2023-01-18T16:09:11.570Z,10.00
2023-01-18T16:11:41.668Z,10.10
2023-01-18T16:14:35.041Z,10.00
2023-01-18T16:17:06.174Z,10.00
2023-01-18T16:19:42.054Z,9.90
2023-01-18T16:22:24.116Z,9.80
2023-01-18T16:25:10.150Z,9.80
2023-01-18T16:27:49.120Z,9.80
2023-01-18T16:30:21.000Z,9.80
2023-01-18T16:32:48.601Z,9.80
2023-01-18T16:35:18.485Z,9.80
2023-01-18T16:37:46.039Z,9.80
2023-01-18T16:40:18.672Z,9.60
2023-01-18T16:42:58.544Z,9.60
2023-01-18T16:45:26.297Z,9.60
2023-01-18T16:47:53.295Z,9.50
2023-01-18T16:50:20.740Z,9.60
2023-01-18T16:52:47.725Z,9.60
2023-01-18T16:55:16.100Z,9.60
2023-01-18T16:57:43.765Z,9.60
2023-01-18T17:00:22.830Z,9.60
2023-01-18T17:02:50.240Z,9.70
2023-01-18T17:05:17.943Z,9.70
2023-01-18T17:07:45.781Z,9.70
2023-01-18T17:10:29.377Z,9.70
2023-01-18T17:12:56.424Z,9.70
2023-01-18T17:15:23.614Z,9.70
2023-01-18T17:17:50.738Z,9.70
2023-01-18T17:20:22.811Z,9.60
2023-01-18T17:22:51.289Z,9.60
2023-01-18T17:25:19.632Z,9.60
2023-01-18T17:27:47.296Z,9.60
2023-01-18T17:30:16.492Z,9.60
2023-01-18T17:32:43.551Z,9.60
2023-01-18T17:35:11.269Z,9.60
2023-01-18T17:40:23.432Z,9.60
2023-01-18T17:42:53.006Z,9.60
2023-01-18T17:45:19.994Z,9.70
2023-01-18T17:47:47.512Z,9.60
2023-01-18T17:50:19.065Z,9.60
2023-01-18T17:52:45.996Z,9.60
2023-01-18T17:55:13.716Z,9.40
2023-01-18T17:57:43.023Z,9.50
2023-01-18T18:00:13.437Z,9.50
2023-01-18T18:02:41.394Z,9.50
2023-01-18T18:05:09.348Z,9.50
2023-01-18T18:07:36.780Z,9.50
2023-01-18T18:10:05.202Z,9.60
2023-01-18T18:12:34.191Z,9.60
2023-01-18T18:15:02.016Z,9.50
2023-01-18T18:17:30.535Z,9.50
2023-01-18T18:19:57.587Z,9.40
2023-01-18T18:22:24.755Z,9.40
2023-01-18T18:24:52.492Z,9.30
2023-01-18T18:27:20.366Z,9.30
2023-01-18T18:29:47.920Z,9.40
2023-01-18T18:32:15.208Z,9.30
2023-01-18T18:34:42.263Z,9.40
2023-01-18T18:37:09.428Z,9.30
2023-01-18T18:39:36.403Z,9.30
2023-01-18T18:42:03.615Z,9.30
2023-01-18T18:44:30.633Z,9.30
2023-01-18T18:46:57.550Z,9.30
2023-01-18T18:49:24.747Z,9.30
2023-01-18T18:51:51.712Z,9.40
2023-01-18T18:54:18.831Z,9.30
2023-01-18T18:56:45.917Z,9.40
2023-01-18T18:59:12.861Z,9.40
2023-01-18T19:01:39.871Z,9.30
2023-01-18T19:04:06.927Z,9.30
2023-01-18T19:06:34.594Z,9.40
2023-01-18T19:09:01.736Z,9.40
2023-01-18T19:11:28.742Z,9.30
2023-01-18T19:13:56.548Z,9.30
2023-01-18T19:16:23.943Z,9.30
2023-01-18T19:18:51.038Z,9.30
2023-01-18T19:21:18.442Z,9.20
2023-01-18T19:23:45.421Z,9.20
2023-01-18T19:26:13.013Z,9.30
2023-01-18T19:28:40.818Z,9.30
2023-01-18T19:31:08.599Z,9.20
2023-01-18T19:33:35.768Z,9.30
2023-01-18T19:36:16.184Z,9.20
2023-01-18T19:38:46.114Z,9.20
2023-01-18T19:41:14.929Z,9.20
2023-01-18T19:43:42.886Z,9.20
2023-01-18T19:46:11.585Z,9.20
2023-01-18T19:48:39.380Z,9.30
2023-01-18T19:51:21.343Z,9.30
2023-01-18T19:53:50.429Z,9.40
2023-01-18T19:56:17.432Z,9.30
2023-01-18T19:58:44.438Z,9.20
2023-01-18T20:01:23.067Z,9.20
2023-01-18T20:03:57.474Z,9.20
2023-01-18T20:06:24.532Z,9.30
2023-01-18T20:08:51.926Z,9.30
2023-01-18T20:11:19.025Z,9.30
2023-01-18T20:13:50.647Z,9.30
2023-01-18T20:16:22.136Z,9.30
2023-01-18T20:18:49.290Z,9.20
2023-01-18T20:21:19.183Z,9.20
2023-01-18T20:23:46.449Z,9.20
2023-01-18T20:26:22.048Z,9.20
2023-01-18T20:28:55.993Z,9.10
2023-01-18T20:31:23.297Z,9.20
2023-01-18T20:33:50.298Z,9.10
2023-01-18T20:36:17.249Z,9.10
2023-01-18T20:38:44.197Z,9.20
2023-01-18T20:41:11.320Z,9.20
2023-01-18T20:43:38.314Z,9.20
2023-01-18T20:46:08.108Z,9.10
2023-01-18T20:48:36.103Z,9.10
2023-01-18T20:51:04.465Z,9.10
2023-01-18T20:53:32.491Z,9.10
2023-01-18T20:56:23.481Z,9.00
2023-01-18T20:58:55.137Z,8.90
2023-01-18T21:01:22.731Z,8.90
2023-01-18T21:03:55.083Z,8.90
2023-01-18T21:06:22.341Z,8.90
2023-01-18T21:08:52.475Z,8.90
2023-01-18T21:11:23.044Z,9.00
2023-01-18T21:13:50.448Z,9.00
2023-01-18T21:16:18.311Z,9.00
2023-01-18T21:18:45.429Z,8.90
2023-01-18T21:21:13.298Z,8.90
2023-01-18T21:23:40.396Z,9.00
2023-01-18T21:26:10.067Z,9.00
2023-01-18T21:28:37.358Z,9.00
2023-01-18T21:31:04.877Z,9.00
2023-01-18T21:33:32.528Z,9.10
2023-01-18T21:36:07.569Z,9.10
2023-01-18T21:38:35.352Z,9.10
2023-01-18T21:41:22.265Z,9.00
2023-01-18T21:44:10.746Z,9.00
2023-01-18T21:46:38.769Z,9.00
2023-01-18T21:49:06.970Z,9.00
2023-01-18T21:51:52.888Z,9.10
2023-01-18T21:54:21.994Z,9.10
2023-01-18T21:56:50.998Z,9.10
2023-01-18T21:59:18.022Z,9.10
2023-01-18T22:01:47.148Z,9.20
2023-01-18T22:04:34.789Z,9.20
2023-01-18T22:07:02.237Z,9.20
2023-01-18T22:09:31.316Z,9.20
2023-01-18T22:11:58.615Z,9.30
2023-01-18T22:14:26.127Z,9.30
2023-01-18T22:16:53.768Z,9.30
2023-01-18T22:19:20.825Z,9.20
2023-01-18T22:21:48.611Z,9.20
2023-01-18T22:24:16.417Z,9.20
2023-01-18T22:26:44.747Z,9.30
2023-01-18T22:29:12.459Z,9.30
2023-01-18T22:31:40.088Z,9.20
2023-01-18T22:34:07.689Z,9.30
2023-01-18T22:36:34.763Z,9.20
2023-01-18T22:39:01.711Z,9.20
2023-01-18T22:41:29.757Z,9.20
2023-01-18T22:43:57.426Z,9.10
2023-01-18T22:46:24.857Z,9.10
2023-01-18T22:48:51.877Z,9.00
2023-01-18T22:51:22.974Z,9.10
2023-01-18T22:53:50.924Z,9.10
2023-01-18T22:56:23.350Z,9.10
2023-01-18T22:58:50.984Z,9.20
2023-01-18T23:01:27.752Z,9.20
2023-01-18T23:04:03.007Z,9.20
2023-01-18T23:06:45.870Z,9.20
2023-01-18T23:09:14.847Z,9.00
2023-01-18T23:11:42.220Z,9.00
2023-01-18T23:14:35.178Z,9.00
2023-01-18T23:17:20.865Z,9.00
2023-01-18T23:19:47.872Z,8.90
2023-01-18T23:22:14.899Z,8.90
2023-01-18T23:24:41.866Z,8.90
2023-01-18T23:27:12.484Z,8.90
2023-01-18T23:29:40.222Z,8.90
2023-01-18T23:32:07.770Z,9.00
2023-01-18T23:34:34.864Z,8.90
2023-01-18T23:37:02.172Z,8.90
2023-01-18T23:39:47.487Z,8.90
2023-01-18T23:42:33.039Z,9.00
2023-01-18T23:45:18.288Z,8.90
2023-01-18T23:48:04.360Z,8.90
2023-01-18T23:50:50.222Z,8.90
2023-01-18T23:53:35.863Z,8.90
2023-01-18T23:56:02.771Z,8.80
2023-01-18T23:58:29.839Z,8.70
